Latest Coastal Weather Observations for Cerberus

IDV60701

Issued at 2:51 pm EST Sunday 26 April 2015 (issued every 10 minutes, with the page automatically refreshed every 10 minutes)

About coastal observations | Map of coastal stations | Coastal observations for VIC | Marine services | Other Formats
Station Details ID: 086361 Name: CERBERUS Lat: -38.36 Lon: 145.18 Height: 12.69 m
Data from the previous 72 hours. | See also: Recent months at Cerberus
Date/Time
EST
Temp

°C
Wind Pressure Rain
since 9am
mm
Weather Cloud Vis
km
Sea
Height
m
Swell
Dir
 
Speed
knots
Gust
knots
hPa Trend Height
m
Period
s
Dir
26/02:30pm 13.5 SSW 13 20 1017.9 - 0.0 - - - - - - -
26/02:00pm 14.1 SSW 9 14 1017.8 - 0.0 - - - - - - -
26/01:30pm 14.6 SSE 11 18 1017.7 - 0.0 - - - - - - -
26/01:00pm 13.1 SSW 14 22 1017.8 - 0.0 - - - - - - -
26/12:30pm 15.1 SSW 12 17 1017.5 - 0.0 - - - - - - -
26/12:00pm 14.3 SSW 11 18 1017.9 - 0.0 - - - - - - -
26/11:30am 14.7 S 11 17 1018.1 - 0.0 - - - - - - -
26/11:00am 14.2 SSW 11 16 1018.0 - 0.0 - - - - - - -
26/10:30am 13.6 S 8 13 1018.0 - 0.0 - - - - - - -
26/10:00am 14.0 S 12 19 1018.0 - 0.0 - - - - - - -
26/09:30am 13.1 S 10 15 1017.9 - 0.0 - - - - - - -
26/09:00am 12.7 SSW 11 19 1017.7 - 0.4 - - - - - - -
26/08:30am 12.3 S 11 19 1017.4 - 0.4 - - - - - - -
26/08:00am 12.8 SSW 9 14 1017.0 - 0.4 - - - - - - -
26/07:30am 12.4 S 11 18 1016.6 - 0.4 - - - - - - -
26/07:00am 12.8 SSW 11 18 1016.2 - 0.4 - - - - - - -
26/06:30am 13.1 SSW 13 20 1015.7 - 0.4 - - - - - - -
26/06:00am 12.8 S 12 19 1015.3 - 0.4 - - - - - - -
26/05:30am 13.2 SSW 10 17 1015.1 - 0.4 - - - - - - -
26/05:00am 12.9 SSW 12 20 1014.9 - 0.4 - - - - - - -
26/04:30am 13.0 SSW 11 18 1014.8 - 0.4 - - - - - - -
26/04:00am 12.4 S 12 21 1014.4 - 0.4 - - - - - - -
26/03:30am 12.8 SSW 11 18 1014.2 - 0.4 - - - - - - -
26/03:00am 13.3 SSW 13 21 1014.1 - 0.4 - - - - - - -
26/02:30am 13.4 S 13 23 1014.1 - 0.4 - - - - - - -
26/02:00am 13.4 SSE 12 19 1014.2 - 0.4 - - - - - - -
26/01:30am 13.0 S 10 17 1014.1 - 0.4 - - - - - - -
26/01:00am 13.7 S 9 14 1014.0 - 0.4 - - - - - - -
26/12:30am 13.8 SSE 11 18 1013.8 - 0.4 - - - - - - -
26/12:00am 13.7 SSE 11 19 1013.7 - 0.4 - - - - - - -
 
Date/Time
EST
Temp

°C
Wind Pressure Rain
since 9am
mm
Weather Cloud Vis
km
Sea
Height
m
Swell
Dir
 
Speed
knots
Gust
knots
hPa Trend Height
m
Period
s
Dir
25/11:30pm 13.8 SE 11 18 1013.3 - 0.4 - - - - - - -
25/11:00pm 14.1 SSE 12 19 1013.2 - 0.4 - - - - - - -
25/10:30pm 14.2 SE 11 19 1013.1 - 0.4 - - - - - - -
25/10:00pm 14.2 SE 11 19 1013.1 - 0.4 - - - - - - -
25/09:30pm 14.3 SE 13 21 1012.7 - 0.4 - - - - - - -
25/09:00pm 14.5 SE 12 19 1012.4 - 0.4 - - - - - - -
25/08:30pm 14.5 SE 14 20 1012.1 - 0.4 - - - - - - -
25/08:00pm 14.6 S 15 20 1011.5 - 0.4 - - - - - - -
25/07:30pm 14.8 SSE 14 21 1011.2 - 0.4 - - - - - - -
25/07:00pm 14.7 SSE 11 19 1011.1 - 0.2 - - - - - - -
25/06:30pm 14.8 S 10 16 1010.6 - 0.2 - - - - - - -
25/06:00pm 14.6 SE 6 11 1010.2 - 0.2 - - - - - - -
25/05:30pm 14.9 SE 8 13 1009.8 - 0.2 - - - - - - -
25/05:00pm 14.6 SE 6 9 1009.7 - 0.2 - - - - - - -
25/04:30pm 14.4 S 5 7 1009.5 - 0.2 - - - - - - -
25/04:00pm 14.9 SE 8 12 1009.2 - 0.2 - - - - - - -
25/03:30pm 15.5 SSE 5 7 1008.9 - 0.2 - - - - - - -
25/03:00pm 15.9 SE 5 8 1008.6 - 0.2 - - - - - - -
25/02:30pm 15.7 ENE 3 5 1008.4 - 0.2 - - - - - - -
25/02:00pm 15.6 ESE 3 4 1008.3 - 0.2 - - - - - - -
25/01:30pm 15.2 ESE 4 6 1008.1 - 0.2 - - - - - - -
25/01:00pm 15.1 ESE 4 7 1008.1 - 0.2 - - - - - - -
25/12:30pm 15.8 NE 1 3 1008.1 - 0.0 - - - - - - -
25/12:00pm 15.5 NNW 1 2 1008.2 - 0.0 - - - - - - -
25/11:30am 15.1 N 1 3 1008.3 - 0.0 - - - - - - -
25/11:00am 14.5 N 1 2 1008.5 - 0.0 - - - - - - -
25/10:30am 14.0 N 2 3 1008.4 - 0.0 - - - - - - -
25/10:00am 13.2 N 1 3 1008.3 - 0.0 - - - - - - -
25/09:30am 13.0 SW 2 2 1008.4 - 0.0 - - - - - - -
25/09:00am 12.7 CALM 0 0 1008.1 - 6.4 - - - - - - -
25/08:30am 12.4 CALM 0 0 1007.8 - 6.4 - - - - - - -
25/08:00am 12.0 CALM 0 0 1007.9 - 6.4 - - - - - - -
25/07:30am 11.9 NW 1 3 1007.2 - 6.4 - - - - - - -
25/07:00am 11.8 CALM 0 2 1006.7 - 6.4 - - - - - - -
25/06:30am 11.9 NW 2 3 1006.5 - 6.4 - - - - - - -
25/06:00am 12.0 NW 3 5 1006.3 - 6.4 - - - - - - -
25/05:30am 12.1 WSW 4 6 1006.2 - 6.4 - - - - - - -
25/05:00am 12.2 NW 7 11 1005.8 - 6.4 - - - - - - -
25/04:30am 12.6 WNW 8 12 1005.6 - 6.4 - - - - - - -
25/04:00am 12.1 NW 5 7 1005.5 - 6.4 - - - - - - -
25/03:30am 11.7 NW 5 7 1005.7 - 6.4 - - - - - - -
25/03:00am 12.0 NW 3 5 1005.7 - 6.2 - - - - - - -
25/02:30am 12.4 NW 2 4 1005.8 - 6.2 - - - - - - -
25/02:00am 12.8 NW 2 5 1006.0 - 6.2 - - - - - - -
25/01:30am 12.8 WNW 2 3 1006.1 - 6.2 - - - - - - -
25/01:00am 12.8 N 1 2 1006.1 - 6.2 - - - - - - -
25/12:30am 12.7 WSW 2 3 1005.9 - 6.2 - - - - - - -
25/12:00am 12.8 SW 2 3 1005.7 - 5.4 Recent precip. - - - - - -
 
Date/Time
EST
Temp

°C
Wind Pressure Rain
since 9am
mm
Weather Cloud Vis
km
Sea
Height
m
Swell
Dir
 
Speed
knots
Gust
knots
hPa Trend Height
m
Period
s
Dir
24/11:30pm 12.9 SW 4 5 1005.7 - 5.4 - - - - - - -
24/11:00pm 13.1 SW 5 9 1005.9 - 3.4 - - - - - - -
24/10:30pm 13.9 W 6 12 1005.9 - 0.4 - - - - - - -
24/10:00pm 14.1 CALM 0 0 1005.2 - 0.4 - - - - - - -
24/09:30pm 14.2 CALM 0 0 1005.1 - 0.4 - - - - - - -
24/09:00pm 14.5 N 3 5 1005.1 - 0.4 - - - - - - -
24/08:30pm 14.5 N 3 4 1004.9 - 0.4 - - - - - - -
24/08:00pm 14.8 CALM 0 1 1004.6 - 0.4 - - - - - - -
24/07:30pm 15.3 CALM 0 2 1004.4 - 0.0 - - - - - - -
24/07:00pm 15.4 SSE 3 5 1004.4 - 0.0 - - - - - - -
24/06:30pm 15.5 SSE 4 7 1004.1 - 0.0 - - - - - - -
24/06:00pm 15.8 S 3 4 1003.8 - 0.0 - - - - - - -
24/05:30pm 16.4 S 5 9 1003.5 - 0.0 - - - - - - -
24/05:00pm 17.3 SSW 5 7 1003.1 - 0.0 - - - - - - -
24/04:30pm 17.5 WSW 5 7 1002.7 - 0.0 - - - - - - -
24/04:00pm 18.3 W 7 9 1002.8 - 0.0 - - - - - - -
24/03:30pm 19.1 W 9 15 1002.7 - 0.0 - - - - - - -
24/03:00pm 19.1 W 7 13 1002.9 - 0.0 - - - - - - -
24/02:30pm 17.6 W 10 14 1002.8 - 0.0 - - - - - - -
24/02:00pm 18.3 W 9 14 1002.8 - 0.0 - - - - - - -
24/01:30pm 17.9 W 8 14 1003.0 - 0.0 - - - - - - -
24/01:00pm 17.5 WNW 7 12 1003.2 - 0.0 - - - - - - -
24/12:30pm 17.2 NW 6 10 1003.4 - 0.0 - - - - - - -
24/12:00pm 16.6 WNW 9 13 1004.0 - 0.0 - - - - - - -
24/11:30am 16.6 WNW 9 12 1004.2 - 0.0 - - - - - - -
24/11:00am 16.6 NW 8 12 1004.2 - 0.0 - - - - - - -
24/10:30am 16.1 WNW 6 9 1004.3 - 0.0 - - - - - - -
24/10:00am 15.8 W 6 10 1004.8 - 0.0 - - - - - - -
24/09:30am 15.7 WNW 5 7 1004.8 - 0.0 - - - - - - -
24/09:00am 16.2 NW 5 7 1004.8 - 0.4 - - - - - - -
24/08:30am 15.7 NW 4 6 1004.7 - 0.4 - - - - - - -
24/08:00am 15.1 N 3 5 1004.8 - 0.4 - - - - - - -
24/07:30am 14.9 NNW 3 4 1004.6 - 0.4 - - - - - - -
24/07:00am 14.8 WNW 4 7 1004.5 - 0.4 - - - - - - -
24/06:30am 14.3 CALM 0 0 1004.4 - 0.4 - - - - - - -
24/06:00am 14.4 WNW 1 2 1004.5 - 0.4 - - - - - - -
24/05:30am 14.2 WNW 2 3 1004.6 - 0.4 - - - - - - -
24/05:00am 14.3 W 1 2 1004.7 - 0.4 - - - - - - -
24/04:30am 14.7 CALM 0 2 1005.1 - 0.4 - - - - - - -
24/04:00am 14.8 W 3 4 1005.3 - 0.2 - - - - - - -
24/03:30am 14.5 N 1 2 1005.6 - 0.2 - - - - - - -
24/03:00am 14.6 CALM 0 0 1005.9 - 0.2 Recent precip. - - - - - -
24/02:30am 14.9 CALM 0 0 1006.4 - 0.2 - - - - - - -
24/02:00am 15.1 CALM 0 1 1006.8 - 0.0 - - - - - - -
24/01:30am 15.2 NNE 1 3 1007.1 - 0.0 - - - - - - -
24/01:00am 15.3 NNE 1 3 1007.5 - 0.0 - - - - - - -
24/12:30am 15.4 NE 2 4 1008.1 - 0.0 - - - - - - -
24/12:00am 15.4 NNE 2 4 1008.5 - 0.0 - - - - - - -
 
Date/Time
EST
Temp

°C
Wind Pressure Rain
since 9am
mm
Weather Cloud Vis
km
Sea
Height
m
Swell
Dir
 
Speed
knots
Gust
knots
hPa Trend Height
m
Period
s
Dir
23/11:30pm 15.3 NE 3 5 1008.8 - 0.0 - - - - - - -
23/11:00pm 15.4 NE 3 5 1009.4 - 0.0 - - - - - - -
23/10:30pm 15.4 NE 4 7 1010.0 - 0.0 - - - - - - -
23/10:00pm 15.5 NNE 4 7 1010.3 - 0.0 - - - - - - -
23/09:30pm 15.4 NNE 6 11 1010.5 - 0.0 - - - - - - -
23/09:00pm 15.5 NNE 5 10 1010.8 - 0.0 - - - - - - -
23/08:30pm 15.6 NNE 7 11 1011.2 - 0.0 - - - - - - -
23/08:00pm 15.6 NNE 7 10 1011.5 - 0.0 - - - - - - -
23/07:30pm 15.7 NE 7 15 1011.9 - 0.0 - - - - - - -
23/07:00pm 15.9 NE 7 11 1012.2 - 0.0 - - - - - - -
23/06:30pm 16.1 NE 7 11 1012.3 - 0.0 - - - - - - -
23/06:00pm 16.4 NE 6 11 1012.3 - 0.0 - - - - - - -
23/05:30pm 16.6 NE 7 11 1012.2 - 0.0 - - - - - - -
23/05:00pm 16.8 ENE 5 9 1012.3 - 0.0 - - - - - - -
23/04:30pm 16.8 E 6 10 1012.5 - 0.0 - - - - - - -
23/04:00pm 17.0 ENE 6 10 1012.7 - 0.0 - - - - - - -
23/03:30pm 17.1 ENE 6 11 1013.1 - 0.0 - - - - - - -
23/03:00pm 17.2 E 6 10 1013.5 - 0.0 - - - - - - -

Other Formats:

Comma delimited format used in spreadsheet applications
http://www.bom.gov.au/fwo/IDV60701/IDV60701.94898.axf

JavaScript Object Notation format (JSON) in row-major order
http://www.bom.gov.au/fwo/IDV60701/IDV60701.94898.json